GLO2408 SBSV-SBJP
Flight info
| Callsign | GLO2408 |
|---|---|
| Flight time | 1h 7m |
| Altitude | 39000 |
| Route | ARURU DCT GERSO UZ14 MEXAR DCT REC |
| Aircraft | B38M/M-SDE1FGHILORVWXY/HB1 |
Departure
| Time | 2026-04-21 17:24 |
|---|---|
| Airport | Deputado Luiz Eduardo Magalhães International Airport (SBSV) |
Arrival
| Time | 2026-04-21 18:32 |
|---|---|
| Airport | Presidente Castro Pinto International Airport (SBJP) |
| Time | Latitude | Longitude | Altitude | Speed | Heading |
|---|---|---|---|---|---|
| 2026-04-21 16:46 | -12.91345 | -38.33316 | 46 ft | 0 kts | 168° |
| 2026-04-21 17:14 | -12.91343 | -38.33317 | 46 ft | 2 kts | 169° |
| 2026-04-21 17:14 | -12.91326 | -38.33319 | 42 ft | 2 kts | 173° |
| 2026-04-21 17:14 | -12.91310 | -38.33317 | 42 ft | 2 kts | 202° |
| 2026-04-21 17:14 | -12.91296 | -38.33308 | 41 ft | 2 kts | 224° |
| 2026-04-21 17:15 | -12.91286 | -38.33295 | 45 ft | 2 kts | 254° |
| 2026-04-21 17:15 | -12.91283 | -38.33278 | 46 ft | 2 kts | 258° |
| 2026-04-21 17:15 | -12.91280 | -38.33262 | 46 ft | 2 kts | 258° |
| 2026-04-21 17:15 | -12.91276 | -38.33245 | 46 ft | 2 kts | 258° |
| 2026-04-21 17:16 | -12.91274 | -38.33233 | 45 ft | 1 kts | 257° |
| 2026-04-21 17:16 | -12.91273 | -38.33231 | 46 ft | 0 kts | 257° |
| 2026-04-21 17:18 | -12.91275 | -38.33238 | 46 ft | 3 kts | 257° |
| 2026-04-21 17:19 | -12.91283 | -38.33274 | 46 ft | 7 kts | 257° |
| 2026-04-21 17:19 | -12.91266 | -38.33311 | 44 ft | 5 kts | 339° |
| 2026-04-21 17:19 | -12.91228 | -38.33326 | 46 ft | 7 kts | 323° |
| 2026-04-21 17:19 | -12.91202 | -38.33367 | 46 ft | 8 kts | 297° |
| 2026-04-21 17:20 | -12.91198 | -38.33374 | 44 ft | 0 kts | 297° |
| 2026-04-21 17:20 | -12.91197 | -38.33375 | 44 ft | 1 kts | 297° |
| 2026-04-21 17:21 | -12.91183 | -38.33405 | 46 ft | 7 kts | 290° |
| 2026-04-21 17:21 | -12.91184 | -38.33463 | 46 ft | 9 kts | 258° |
| 2026-04-21 17:21 | -12.91199 | -38.33537 | 46 ft | 12 kts | 259° |
| 2026-04-21 17:21 | -12.91182 | -38.33582 | 44 ft | 6 kts | 314° |
| 2026-04-21 17:22 | -12.91169 | -38.33588 | 46 ft | 2 kts | 345° |
| 2026-04-21 17:22 | -12.91126 | -38.33582 | 47 ft | 7 kts | 33° |
| 2026-04-21 17:22 | -12.91120 | -38.33571 | 45 ft | 1 kts | 80° |
| 2026-04-21 17:22 | -12.91118 | -38.33555 | 47 ft | 0 kts | 77° |
| 2026-04-21 17:23 | -12.91117 | -38.33550 | 47 ft | 0 kts | 77° |
| 2026-04-21 17:23 | -12.91114 | -38.33538 | 45 ft | 8 kts | 77° |
| 2026-04-21 17:23 | -12.91073 | -38.33333 | 44 ft | 60 kts | 78° |
| 2026-04-21 17:23 | -12.90950 | -38.32708 | 52 ft | 117 kts | 78° |
| 2026-04-21 17:24 | -12.90748 | -38.31734 | 58 ft | 163 kts | 83° |
| 2026-04-21 17:24 | -12.90523 | -38.30571 | 560 ft | 167 kts | 82° |
| 2026-04-21 17:24 | -12.90276 | -38.29379 | 1024 ft | 184 kts | 81° |
| 2026-04-21 17:24 | -12.89963 | -38.28090 | 1731 ft | 185 kts | 78° |
| 2026-04-21 17:25 | -12.89365 | -38.26857 | 2220 ft | 209 kts | 46° |
| 2026-04-21 17:25 | -12.88015 | -38.26191 | 2761 ft | 230 kts | 9° |
| 2026-04-21 17:25 | -12.86384 | -38.26341 | 3284 ft | 249 kts | 348° |
| 2026-04-21 17:25 | -12.84612 | -38.26651 | 3821 ft | 267 kts | 353° |
| 2026-04-21 17:26 | -12.82715 | -38.26929 | 4377 ft | 284 kts | 353° |
| 2026-04-21 17:26 | -12.80753 | -38.27223 | 5305 ft | 283 kts | 352° |
| 2026-04-21 17:26 | -12.78786 | -38.27522 | 5880 ft | 289 kts | 352° |
| 2026-04-21 17:26 | -12.76793 | -38.27827 | 5956 ft | 288 kts | 352° |
| 2026-04-21 17:27 | -12.74816 | -38.28131 | 5990 ft | 287 kts | 352° |
| 2026-04-21 17:27 | -12.72849 | -38.28398 | 6071 ft | 290 kts | 1° |
| 2026-04-21 17:27 | -12.70908 | -38.27967 | 6904 ft | 285 kts | 27° |
| 2026-04-21 17:27 | -12.69236 | -38.26890 | 7728 ft | 287 kts | 37° |
| 2026-04-21 17:28 | -12.67602 | -38.25691 | 8515 ft | 290 kts | 37° |
| 2026-04-21 17:28 | -12.65960 | -38.24462 | 9331 ft | 293 kts | 37° |
| 2026-04-21 17:28 | -12.64309 | -38.23211 | 10137 ft | 297 kts | 37° |
| 2026-04-21 17:28 | -12.62624 | -38.21923 | 10679 ft | 310 kts | 37° |
| 2026-04-21 17:29 | -12.60847 | -38.20556 | 11079 ft | 327 kts | 37° |
| 2026-04-21 17:29 | -12.58993 | -38.19127 | 11565 ft | 340 kts | 37° |
| 2026-04-21 17:29 | -12.57121 | -38.17682 | 12308 ft | 342 kts | 37° |
| 2026-04-21 17:29 | -12.55182 | -38.16186 | 13083 ft | 347 kts | 37° |
| 2026-04-21 17:30 | -12.53269 | -38.14710 | 13826 ft | 351 kts | 36° |
| 2026-04-21 17:30 | -12.51308 | -38.13196 | 14503 ft | 355 kts | 36° |
| 2026-04-21 17:30 | -12.49323 | -38.11665 | 15193 ft | 359 kts | 36° |
| 2026-04-21 17:30 | -12.47317 | -38.10116 | 15874 ft | 363 kts | 36° |
| 2026-04-21 17:31 | -12.45289 | -38.08552 | 16538 ft | 367 kts | 35° |
| 2026-04-21 17:31 | -12.43239 | -38.06970 | 17184 ft | 371 kts | 35° |
| 2026-04-21 17:31 | -12.41163 | -38.05370 | 17849 ft | 375 kts | 35° |
| 2026-04-21 17:31 | -12.39072 | -38.03758 | 18416 ft | 379 kts | 35° |
| 2026-04-21 17:32 | -12.37669 | -38.02677 | 18766 ft | 381 kts | 35° |
| 2026-04-21 17:32 | -12.34846 | -38.00502 | 19471 ft | 386 kts | 35° |
| 2026-04-21 17:32 | -12.32701 | -37.98849 | 19982 ft | 389 kts | 35° |
| 2026-04-21 17:32 | -12.30523 | -37.97171 | 20493 ft | 393 kts | 35° |
| 2026-04-21 17:33 | -12.28331 | -37.95483 | 20993 ft | 396 kts | 35° |
| 2026-04-21 17:33 | -12.26122 | -37.93783 | 21493 ft | 400 kts | 35° |
| 2026-04-21 17:33 | -12.23883 | -37.92059 | 21980 ft | 403 kts | 35° |
| 2026-04-21 17:33 | -12.21635 | -37.90329 | 22474 ft | 407 kts | 35° |
| 2026-04-21 17:34 | -12.19395 | -37.88605 | 22944 ft | 410 kts | 35° |
| 2026-04-21 17:34 | -12.17104 | -37.86844 | 23415 ft | 414 kts | 35° |
| 2026-04-21 17:34 | -12.14794 | -37.85067 | 23816 ft | 417 kts | 35° |
| 2026-04-21 17:34 | -12.12466 | -37.83277 | 24216 ft | 420 kts | 35° |
| 2026-04-21 17:35 | -12.10125 | -37.81477 | 24609 ft | 422 kts | 35° |
| 2026-04-21 17:35 | -12.07772 | -37.79669 | 25006 ft | 425 kts | 35° |
| 2026-04-21 17:35 | -12.05399 | -37.77845 | 25409 ft | 428 kts | 35° |
| 2026-04-21 17:35 | -12.03011 | -37.76011 | 25801 ft | 430 kts | 35° |
| 2026-04-21 17:36 | -12.00640 | -37.74190 | 26182 ft | 433 kts | 35° |
| 2026-04-21 17:36 | -11.98227 | -37.72337 | 26567 ft | 436 kts | 35° |
| 2026-04-21 17:36 | -11.95795 | -37.70470 | 26950 ft | 438 kts | 35° |
| 2026-04-21 17:36 | -11.93440 | -37.68487 | 27323 ft | 442 kts | 43° |
| 2026-04-21 17:37 | -11.91215 | -37.66301 | 27700 ft | 444 kts | 41° |
| 2026-04-21 17:37 | -11.88955 | -37.64141 | 28055 ft | 447 kts | 41° |
| 2026-04-21 17:37 | -11.87447 | -37.62714 | 28297 ft | 448 kts | 41° |
| 2026-04-21 17:37 | -11.84368 | -37.59816 | 28781 ft | 451 kts | 41° |
| 2026-04-21 17:38 | -11.82052 | -37.57642 | 29118 ft | 454 kts | 41° |
| 2026-04-21 17:38 | -11.79754 | -37.55485 | 29454 ft | 456 kts | 41° |
| 2026-04-21 17:38 | -11.77411 | -37.53287 | 29799 ft | 458 kts | 41° |
| 2026-04-21 17:38 | -11.75060 | -37.51083 | 30114 ft | 460 kts | 41° |
| 2026-04-21 17:39 | -11.72694 | -37.48864 | 30401 ft | 462 kts | 41° |
| 2026-04-21 17:39 | -11.70319 | -37.46639 | 30686 ft | 464 kts | 40° |
| 2026-04-21 17:39 | -11.67937 | -37.44407 | 30979 ft | 466 kts | 40° |
| 2026-04-21 17:39 | -11.65545 | -37.42166 | 31258 ft | 468 kts | 40° |
| 2026-04-21 17:40 | -11.63147 | -37.39920 | 31537 ft | 469 kts | 40° |
| 2026-04-21 17:40 | -11.60770 | -37.37695 | 31807 ft | 471 kts | 40° |
| 2026-04-21 17:40 | -11.58358 | -37.35437 | 32086 ft | 472 kts | 40° |
| 2026-04-21 17:40 | -11.55930 | -37.33164 | 32357 ft | 474 kts | 40° |
| 2026-04-21 17:41 | -11.53493 | -37.30884 | 32645 ft | 475 kts | 40° |
| 2026-04-21 17:41 | -11.51062 | -37.28610 | 33003 ft | 475 kts | 40° |
| 2026-04-21 17:41 | -11.48630 | -37.26335 | 33382 ft | 474 kts | 40° |
| 2026-04-21 17:41 | -11.46205 | -37.24068 | 33765 ft | 472 kts | 39° |
| 2026-04-21 17:42 | -11.43786 | -37.21807 | 34125 ft | 471 kts | 39° |
| 2026-04-21 17:42 | -11.41408 | -37.19585 | 34439 ft | 471 kts | 39° |
| 2026-04-21 17:42 | -11.38992 | -37.17327 | 34745 ft | 470 kts | 39° |
| 2026-04-21 17:42 | -11.36590 | -37.15083 | 35076 ft | 468 kts | 39° |
| 2026-04-21 17:43 | -11.34188 | -37.12841 | 35383 ft | 468 kts | 39° |
| 2026-04-21 17:43 | -11.31789 | -37.10601 | 35677 ft | 467 kts | 39° |
| 2026-04-21 17:43 | -11.29395 | -37.08366 | 35983 ft | 467 kts | 39° |
| 2026-04-21 17:43 | -11.27003 | -37.06134 | 36283 ft | 466 kts | 39° |
| 2026-04-21 17:44 | -11.24613 | -37.03904 | 36561 ft | 465 kts | 39° |
| 2026-04-21 17:44 | -11.22260 | -37.01709 | 36839 ft | 465 kts | 39° |
| 2026-04-21 17:44 | -11.19882 | -36.99492 | 37110 ft | 464 kts | 39° |
| 2026-04-21 17:44 | -11.17496 | -36.97268 | 37371 ft | 464 kts | 39° |
| 2026-04-21 17:45 | -11.15118 | -36.95051 | 37618 ft | 463 kts | 39° |
| 2026-04-21 17:45 | -11.12746 | -36.92841 | 37863 ft | 463 kts | 39° |
| 2026-04-21 17:45 | -11.10375 | -36.90632 | 38108 ft | 462 kts | 39° |
| 2026-04-21 17:45 | -11.08008 | -36.88427 | 38341 ft | 461 kts | 39° |
| 2026-04-21 17:46 | -11.05638 | -36.86221 | 38554 ft | 461 kts | 39° |
| 2026-04-21 17:46 | -11.03272 | -36.84018 | 38750 ft | 460 kts | 39° |
| 2026-04-21 17:46 | -11.00948 | -36.81853 | 38914 ft | 460 kts | 39° |
| 2026-04-21 17:46 | -10.98586 | -36.79655 | 38953 ft | 459 kts | 39° |
| 2026-04-21 17:47 | -10.93890 | -36.75288 | 38953 ft | 457 kts | 39° |
| 2026-04-21 17:47 | -10.89196 | -36.70922 | 38952 ft | 456 kts | 39° |
| 2026-04-21 17:48 | -10.84518 | -36.66574 | 38955 ft | 456 kts | 39° |
| 2026-04-21 17:48 | -10.79542 | -36.62738 | 38953 ft | 452 kts | 32° |
| 2026-04-21 17:49 | -10.74402 | -36.59061 | 38955 ft | 451 kts | 32° |
| 2026-04-21 17:49 | -10.69268 | -36.55404 | 38953 ft | 451 kts | 32° |
| 2026-04-21 17:50 | -10.64133 | -36.51750 | 38953 ft | 450 kts | 32° |
| 2026-04-21 17:50 | -10.59029 | -36.48120 | 38950 ft | 450 kts | 32° |
| 2026-04-21 17:51 | -10.53905 | -36.44477 | 38954 ft | 450 kts | 32° |
| 2026-04-21 17:51 | -10.48763 | -36.40822 | 38952 ft | 450 kts | 32° |
| 2026-04-21 17:52 | -10.43666 | -36.37201 | 38947 ft | 450 kts | 32° |
| 2026-04-21 17:52 | -10.38529 | -36.33553 | 38948 ft | 451 kts | 32° |
| 2026-04-21 17:53 | -10.33396 | -36.29909 | 38946 ft | 451 kts | 32° |
| 2026-04-21 17:53 | -10.28257 | -36.26263 | 38945 ft | 451 kts | 32° |
| 2026-04-21 17:54 | -10.23144 | -36.22637 | 38948 ft | 450 kts | 32° |
| 2026-04-21 17:54 | -10.18010 | -36.18997 | 38949 ft | 450 kts | 32° |
| 2026-04-21 17:55 | -10.12874 | -36.15357 | 38950 ft | 450 kts | 32° |
| 2026-04-21 17:55 | -10.07736 | -36.11718 | 38948 ft | 450 kts | 32° |
| 2026-04-21 17:56 | -10.03471 | -36.08697 | 38946 ft | 450 kts | 32° |
| 2026-04-21 17:56 | -9.97507 | -36.04475 | 38945 ft | 449 kts | 32° |
| 2026-04-21 17:57 | -9.93245 | -36.01460 | 38948 ft | 449 kts | 32° |
| 2026-04-21 17:57 | -9.88130 | -35.97841 | 38940 ft | 449 kts | 32° |
| 2026-04-21 17:58 | -9.83009 | -35.94221 | 38941 ft | 448 kts | 32° |
| 2026-04-21 17:58 | -9.77070 | -35.90023 | 38939 ft | 448 kts | 32° |
| 2026-04-21 17:59 | -9.72817 | -35.87019 | 38939 ft | 448 kts | 32° |
| 2026-04-21 17:59 | -9.67715 | -35.83415 | 38937 ft | 447 kts | 32° |
| 2026-04-21 18:00 | -9.62609 | -35.79811 | 38936 ft | 447 kts | 32° |
| 2026-04-21 18:00 | -9.56691 | -35.75634 | 38938 ft | 446 kts | 32° |
| 2026-04-21 18:01 | -9.52455 | -35.72646 | 38938 ft | 446 kts | 32° |
| 2026-04-21 18:01 | -9.47372 | -35.69062 | 38938 ft | 445 kts | 33° |
| 2026-04-21 18:02 | -9.42293 | -35.65482 | 38935 ft | 445 kts | 32° |
| 2026-04-21 18:02 | -9.37216 | -35.61903 | 38933 ft | 444 kts | 33° |
| 2026-04-21 18:03 | -9.32179 | -35.58355 | 38938 ft | 444 kts | 33° |
| 2026-04-21 18:03 | -9.27114 | -35.54788 | 38940 ft | 443 kts | 33° |
| 2026-04-21 18:04 | -9.22052 | -35.51225 | 38939 ft | 443 kts | 33° |
| 2026-04-21 18:04 | -9.16984 | -35.47659 | 38937 ft | 444 kts | 33° |
| 2026-04-21 18:05 | -9.11913 | -35.44092 | 38938 ft | 444 kts | 33° |
| 2026-04-21 18:05 | -9.06876 | -35.40551 | 38937 ft | 444 kts | 33° |
| 2026-04-21 18:06 | -9.01813 | -35.36992 | 38935 ft | 444 kts | 33° |
| 2026-04-21 18:06 | -8.96724 | -35.33417 | 38937 ft | 444 kts | 33° |
| 2026-04-21 18:07 | -8.91676 | -35.29871 | 38407 ft | 445 kts | 33° |
| 2026-04-21 18:07 | -8.89123 | -35.28086 | 37507 ft | 449 kts | 31° |
| 2026-04-21 18:07 | -8.86351 | -35.26625 | 36658 ft | 450 kts | 22° |
| 2026-04-21 18:08 | -8.83507 | -35.25312 | 36119 ft | 448 kts | 23° |
| 2026-04-21 18:08 | -8.80690 | -35.23988 | 35637 ft | 444 kts | 23° |
| 2026-04-21 18:08 | -8.77898 | -35.22682 | 35117 ft | 442 kts | 23° |
| 2026-04-21 18:08 | -8.75109 | -35.21379 | 34566 ft | 441 kts | 23° |
| 2026-04-21 18:09 | -8.72332 | -35.20081 | 34041 ft | 439 kts | 23° |
| 2026-04-21 18:09 | -8.69567 | -35.18790 | 33463 ft | 437 kts | 23° |
| 2026-04-21 18:09 | -8.66843 | -35.17519 | 32925 ft | 435 kts | 23° |
| 2026-04-21 18:09 | -8.64109 | -35.16242 | 32419 ft | 432 kts | 23° |
| 2026-04-21 18:10 | -8.61396 | -35.14976 | 31916 ft | 429 kts | 23° |
| 2026-04-21 18:10 | -8.58689 | -35.13713 | 31413 ft | 426 kts | 23° |
| 2026-04-21 18:10 | -8.56010 | -35.12463 | 30912 ft | 424 kts | 23° |
| 2026-04-21 18:10 | -8.53347 | -35.11221 | 30407 ft | 421 kts | 23° |
| 2026-04-21 18:11 | -8.50685 | -35.09979 | 29897 ft | 419 kts | 23° |
| 2026-04-21 18:11 | -8.48047 | -35.08749 | 29320 ft | 417 kts | 23° |
| 2026-04-21 18:11 | -8.45457 | -35.07542 | 28818 ft | 414 kts | 24° |
| 2026-04-21 18:11 | -8.42852 | -35.06328 | 28333 ft | 410 kts | 24° |
| 2026-04-21 18:12 | -8.40276 | -35.05127 | 27856 ft | 406 kts | 24° |
| 2026-04-21 18:12 | -8.37717 | -35.03935 | 27379 ft | 403 kts | 24° |
| 2026-04-21 18:12 | -8.35184 | -35.02754 | 26904 ft | 400 kts | 24° |
| 2026-04-21 18:12 | -8.32662 | -35.01579 | 26429 ft | 398 kts | 24° |
| 2026-04-21 18:13 | -8.30158 | -35.00412 | 25957 ft | 395 kts | 24° |
| 2026-04-21 18:13 | -8.27673 | -34.99255 | 25483 ft | 393 kts | 24° |
| 2026-04-21 18:13 | -8.25191 | -34.98099 | 25026 ft | 391 kts | 24° |
| 2026-04-21 18:13 | -8.22729 | -34.96953 | 24560 ft | 389 kts | 24° |
| 2026-04-21 18:14 | -8.17861 | -34.94686 | 23643 ft | 387 kts | 24° |
| 2026-04-21 18:14 | -8.15401 | -34.93596 | 23056 ft | 387 kts | 17° |
| 2026-04-21 18:14 | -8.12755 | -34.93161 | 22462 ft | 385 kts | 359° |
| 2026-04-21 18:15 | -8.10113 | -34.93471 | 22098 ft | 379 kts | 351° |
| 2026-04-21 18:15 | -8.07524 | -34.93880 | 21687 ft | 375 kts | 351° |
| 2026-04-21 18:15 | -8.04960 | -34.94309 | 21249 ft | 372 kts | 351° |
| 2026-04-21 18:15 | -8.02421 | -34.94747 | 20816 ft | 370 kts | 351° |
| 2026-04-21 18:16 | -7.99925 | -34.95184 | 20390 ft | 367 kts | 351° |
| 2026-04-21 18:16 | -7.97418 | -34.95626 | 19961 ft | 365 kts | 351° |
| 2026-04-21 18:16 | -7.94920 | -34.96068 | 19530 ft | 363 kts | 352° |
| 2026-04-21 18:16 | -7.92438 | -34.96508 | 19104 ft | 361 kts | 352° |
| 2026-04-21 18:17 | -7.89968 | -34.96947 | 18678 ft | 360 kts | 352° |
| 2026-04-21 18:17 | -7.87507 | -34.97384 | 18254 ft | 359 kts | 352° |
| 2026-04-21 18:17 | -7.85048 | -34.97821 | 17760 ft | 358 kts | 351° |
| 2026-04-21 18:17 | -7.82714 | -34.98236 | 17321 ft | 356 kts | 352° |
| 2026-04-21 18:18 | -7.80280 | -34.98669 | 16893 ft | 354 kts | 352° |
| 2026-04-21 18:18 | -7.77864 | -34.99099 | 16469 ft | 351 kts | 351° |
| 2026-04-21 18:18 | -7.75468 | -34.99524 | 16043 ft | 349 kts | 352° |
| 2026-04-21 18:18 | -7.73080 | -34.99949 | 15619 ft | 347 kts | 352° |
| 2026-04-21 18:19 | -7.70711 | -35.00370 | 15197 ft | 345 kts | 351° |
| 2026-04-21 18:19 | -7.68348 | -35.00790 | 14773 ft | 344 kts | 351° |
| 2026-04-21 18:19 | -7.65994 | -35.01208 | 14329 ft | 343 kts | 352° |
| 2026-04-21 18:19 | -7.63675 | -35.01620 | 13930 ft | 342 kts | 351° |
| 2026-04-21 18:20 | -7.61303 | -35.02041 | 13465 ft | 342 kts | 351° |
| 2026-04-21 18:20 | -7.59000 | -35.02450 | 13006 ft | 341 kts | 351° |
| 2026-04-21 18:20 | -7.56666 | -35.02865 | 12558 ft | 339 kts | 351° |
| 2026-04-21 18:20 | -7.54359 | -35.03275 | 12137 ft | 336 kts | 351° |
| 2026-04-21 18:21 | -7.52064 | -35.03682 | 11732 ft | 334 kts | 351° |
| 2026-04-21 18:21 | -7.49779 | -35.04088 | 11291 ft | 332 kts | 351° |
| 2026-04-21 18:21 | -7.47506 | -35.04491 | 10877 ft | 331 kts | 351° |
| 2026-04-21 18:21 | -7.45247 | -35.04892 | 10513 ft | 328 kts | 351° |
| 2026-04-21 18:22 | -7.43038 | -35.05284 | 10325 ft | 318 kts | 351° |
| 2026-04-21 18:22 | -7.40893 | -35.05665 | 10155 ft | 308 kts | 351° |
| 2026-04-21 18:22 | -7.38838 | -35.06029 | 9957 ft | 300 kts | 351° |
| 2026-04-21 18:22 | -7.36784 | -35.06394 | 9568 ft | 300 kts | 351° |
| 2026-04-21 18:23 | -7.34732 | -35.06758 | 9160 ft | 300 kts | 351° |
| 2026-04-21 18:23 | -7.32676 | -35.07123 | 8758 ft | 299 kts | 351° |
| 2026-04-21 18:23 | -7.30632 | -35.07485 | 8383 ft | 298 kts | 351° |
| 2026-04-21 18:23 | -7.28597 | -35.07846 | 8000 ft | 297 kts | 350° |
| 2026-04-21 18:24 | -7.26559 | -35.08208 | 7633 ft | 296 kts | 351° |
| 2026-04-21 18:24 | -7.24556 | -35.08562 | 7247 ft | 296 kts | 350° |
| 2026-04-21 18:24 | -7.22530 | -35.08921 | 6875 ft | 295 kts | 351° |
| 2026-04-21 18:24 | -7.20511 | -35.09280 | 6506 ft | 294 kts | 351° |
| 2026-04-21 18:25 | -7.18498 | -35.09636 | 6120 ft | 292 kts | 351° |
| 2026-04-21 18:25 | -7.16529 | -35.09986 | 5736 ft | 283 kts | 350° |
| 2026-04-21 18:25 | -7.14621 | -35.10324 | 5370 ft | 274 kts | 350° |
| 2026-04-21 18:25 | -7.12777 | -35.10650 | 5054 ft | 266 kts | 350° |
| 2026-04-21 18:26 | -7.10936 | -35.10976 | 4728 ft | 272 kts | 350° |
| 2026-04-21 18:26 | -7.09058 | -35.11309 | 4360 ft | 276 kts | 350° |
| 2026-04-21 18:26 | -7.07179 | -35.11642 | 4122 ft | 271 kts | 351° |
| 2026-04-21 18:26 | -7.05383 | -35.11960 | 3982 ft | 259 kts | 351° |
| 2026-04-21 18:27 | -7.03660 | -35.12027 | 3833 ft | 240 kts | 15° |
| 2026-04-21 18:27 | -7.02318 | -35.11223 | 3665 ft | 216 kts | 55° |
| 2026-04-21 18:27 | -7.01791 | -35.09908 | 3488 ft | 196 kts | 91° |
| 2026-04-21 18:27 | -7.02016 | -35.08644 | 3415 ft | 176 kts | 114° |
| 2026-04-21 18:28 | -7.02619 | -35.07585 | 3322 ft | 176 kts | 131° |
| 2026-04-21 18:28 | -7.03419 | -35.06657 | 3130 ft | 174 kts | 134° |
| 2026-04-21 18:28 | -7.04219 | -35.05784 | 2893 ft | 170 kts | 135° |
| 2026-04-21 18:28 | -7.05035 | -35.04924 | 2739 ft | 170 kts | 136° |
| 2026-04-21 18:29 | -7.05859 | -35.04074 | 2596 ft | 170 kts | 136° |
| 2026-04-21 18:29 | -7.06689 | -35.03227 | 2426 ft | 170 kts | 137° |
| 2026-04-21 18:29 | -7.07530 | -35.02381 | 2183 ft | 171 kts | 137° |
| 2026-04-21 18:29 | -7.08373 | -35.01534 | 1867 ft | 171 kts | 137° |
| 2026-04-21 18:30 | -7.09197 | -35.00704 | 1618 ft | 163 kts | 136° |
| 2026-04-21 18:30 | -7.09968 | -34.99923 | 1368 ft | 152 kts | 136° |
| 2026-04-21 18:30 | -7.10691 | -34.99199 | 1093 ft | 142 kts | 136° |
| 2026-04-21 18:30 | -7.11375 | -34.98535 | 817 ft | 134 kts | 135° |
| 2026-04-21 18:31 | -7.12021 | -34.97893 | 663 ft | 129 kts | 134° |
| 2026-04-21 18:31 | -7.12653 | -34.97243 | 571 ft | 130 kts | 135° |
| 2026-04-21 18:31 | -7.13306 | -34.96617 | 468 ft | 129 kts | 135° |
| 2026-04-21 18:31 | -7.13942 | -34.95990 | 278 ft | 126 kts | 134° |
| 2026-04-21 18:32 | -7.14515 | -34.95403 | 224 ft | 92 kts | 136° |
| 2026-04-21 18:32 | -7.14787 | -34.95134 | 225 ft | 27 kts | 134° |
| 2026-04-21 18:32 | -7.14860 | -34.95059 | 225 ft | 15 kts | 136° |
| 2026-04-21 18:32 | -7.14933 | -34.95006 | 225 ft | 7 kts | 123° |
| 2026-04-21 18:33 | -7.14931 | -34.94993 | 225 ft | 0 kts | 44° |
| 2026-04-21 18:33 | -7.14921 | -34.94996 | 228 ft | 5 kts | 332° |
| 2026-04-21 18:33 | -7.14883 | -34.95041 | 225 ft | 10 kts | 316° |
| 2026-04-21 18:33 | -7.14828 | -34.95087 | 226 ft | 9 kts | 346° |
| 2026-04-21 18:34 | -7.14779 | -34.95057 | 226 ft | 10 kts | 48° |
| 2026-04-21 18:34 | -7.14754 | -34.95032 | 224 ft | 0 kts | 44° |
| 2026-04-21 18:35 | -7.14750 | -34.95028 | 224 ft | 3 kts | 44° |
| 2026-04-21 18:35 | -7.14718 | -34.94992 | 224 ft | 7 kts | 58° |
| 2026-04-21 18:35 | -7.14718 | -34.94970 | 224 ft | 2 kts | 116° |
| 2026-04-21 18:36 | -7.14747 | -34.94938 | 224 ft | 11 kts | 135° |
| 2026-04-21 18:36 | -7.14779 | -34.94879 | 224 ft | 4 kts | 63° |
| 2026-04-21 18:36 | -7.14753 | -34.94858 | 224 ft | 5 kts | 11° |
| 2026-04-21 18:36 | -7.14741 | -34.94864 | 224 ft | 1 kts | 310° |
| 2026-04-21 18:37 | -7.14730 | -34.94876 | 224 ft | 4 kts | 314° |
| 2026-04-21 18:37 | -7.14727 | -34.94879 | 224 ft | 0 kts | 314° |